ADDS METAR Data INFO
IDs: Format: Raw Decoded Include TAF

Data at: 1132 UTC 29 May 2017

KRBD 291053Z AUTO 02006KT 10SM CLR 20/19 A2995 RMK AO2 SLP135 T02000189
KRBD 290953Z AUTO 35007KT 9SM CLR 21/20 A2995 RMK AO2 SLP135 T02110200
KRBD 290853Z AUTO 33006KT 6SM BR CLR 20/20 A2997 RMK AO2 SLP141 T02000200 58020
KRBD 290753Z AUTO 31004KT 7SM CLR 21/20 A2999 RMK AO2 SLP148 T02060200
KRBD 290653Z AUTO 31004KT 8SM CLR 20/20 A3003 RMK AO2 SLP163 T02000200
KRBD 290553Z AUTO 00000KT 10SM CLR 21/21 A3003 RMK AO2 SLP162 T02110206 10250 20211 402720206 50015
KRBD 290453Z AUTO VRB03KT 10SM SCT041 22/21 A3004 RMK AO2 SLP164 T02220206
KRBD 290353Z AUTO 00000KT 10SM CLR 22/21 A3001 RMK AO2 SLP157 T02170206
KRBD 290253Z AUTO 16004KT 10SM CLR 22/21 A2998 RMK AO2 LTG DSNT S SLP147 T02220211 53022
KRBD 290153Z 08005KT 10SM CLR 24/21 A2993 RMK AO2 PRESRR SLP128 T02390206
KRBD 290053Z 06004KT 10SM OVC060 24/21 A2991 RMK AO2 SLP122 T02440206
KRBD 282353Z AUTO 36007KT 10SM BKN047 25/21 A2992 RMK AO2 RAB10E20 SLP123 P0000 60002 T02500206 10256 20217 55019
KRBD 282253Z AUTO 36008KT 10SM OVC032 24/21 A2991 RMK AO2 SLP122 T02440206
KRBD 282234Z AUTO 01009KT 10SM SCT026 OVC032 25/21 A2991 RMK AO2 T02500211
KRBD 282153Z AUTO 04009KT 10SM OVC016 23/21 A2991 RMK AO2 PRESFR SLP121 T02330211
KRBD 282122Z AUTO 35011KT 10SM BKN013 OVC024 23/22 A2996 RMK AO2 LTG DSNT E T02330217
KRBD 282053Z 31009KT 10SM OVC021 23/22 A2997 RMK AO2 LTG DSNT NE-SE TSE21 SLP141 60002 T02330222 55001
KRBD 282040Z 32005KT 8SM OVC021 23/22 A2996 RMK AO2 LTG DSNT NE-SE TSE21 T02330222
KRBD 282027Z 06005KT 8SM VCTS FEW007 OVC020 23/22 A2995 RMK AO2 LTG DSNT NE-SE TSE21 T02280217
KRBD 281953Z 06006KT 6SM TS BR FEW005 OVC020 23/22 A2996 RMK AO2 LTG DSNT NE-S RAB1859E53 TSB44 SLP137 P0002 T02280222
KRBD 281944Z 03009KT 3SM -TSRA BR FEW007 BKN014 OVC019 22/22 A2995 RMK AO2 LTG DSNT ALQDS RAB1859 TSB44 P0002 T02220217
KRBD 281939Z 02007KT 2SM VCTS -RA BR FEW009 OVC016 22/22 A2996 RMK AO2 LTG DSNT N-E RAB1859 P0002 T02220217
KRBD 281928Z 36009KT 1 3/4SM VCTS -RA BR FEW007 OVC011 22/22 A2996 RMK AO2 LTG DSNT N AND NE RAB1859 P0000 T02170217
KRBD 281926Z 35010KT 2SM -RA BR FEW007 OVC011 22/22 A2997 RMK AO2 LTG DSNT N AND NE RAB1859 P0000 T02170217
KRBD 281913Z 34008KT 1 3/4SM -RA BR OVC010 22/21 A2998 RMK AO2 LTG DSNT N AND NE RAB1859 P0000 T02170211
KRBD 281902Z 36006KT 2 1/2SM -RA BR OVC010 22/21 A2998 RMK AO2 LTG DSNT N RAB1859 CIG 006V013 P0000 T02220211
KRBD 281853Z 01008KT 5SM BR BKN008 OVC012 22/21 A2997 RMK AO2 LTG DSNT W RAE1759B09E23 CIG 005V011 SLP142 P0000 T02220211
KRBD 281806Z 05006KT 3SM BR OVC006 22/21 A2995 RMK AO2 RAE1759 CIG 004V008 P0000 T02220211
KRBD 281753Z 03006KT 2SM -RA BR BKN006 OVC009 22/22 A2996 RMK AO2 RAE37B50 CIG 004V008 SLP137 P0001 60007 T02220217 10222 20206 58002
KRBD 281738Z 04009KT 4SM BR OVC006 22/21 A2996 RMK AO2 RAE37 CIG 003V009 P0001 T02220211
KRBD 281719Z 05008KT 2 1/2SM -RA BR BKN007 OVC011 22/21 A2996 RMK AO2 P0000 T02170211
KRBD 281711Z 05007KT 3SM -RA BR OVC009 22/21 A2997 RMK AO2 P0000 T02170211
KRBD 281653Z 06008KT 2 1/2SM -RA BR OVC005 22/21 A2997 RMK AO2 CIG 004V007 SLP140 P0004 T02170211
KRBD 281648Z 04007KT 2 1/2SM -RA BR BKN005 OVC009 22/21 A2997 RMK AO2 CIG 004V007 P0004
KRBD 281636Z 06006KT 3SM -RA BR OVC005 22/22 A2996 RMK AO2 CIG 004V010 P0004 T02220217
KRBD 281622Z 06006KT 2 1/2SM -RA BR OVC005 22/21 A2996 RMK AO2 CIG 004V009 P0004 T02170211
KRBD 281600Z 07009KT 1 1/2SM RA BR OVC005 22/21 A2995 RMK AO2 CIG 004V008 P0001 T02170211
KRBD 281553Z 07007KT 2SM -RA BR OVC005 22/21 A2995 RMK AO2 CIG 003V008 SLP134 P0000 T02170211
KRBD 281529Z 06008KT 2SM -RA BR BKN005 OVC013 22/21 A2995 RMK AO2 CIG 003V009 P0000 T02170211
KRBD 281521Z 07008KT 1 3/4SM -RA BR BKN005 OVC013 22/21 A2994 RMK AO2 CIG 003V010 P0000 T02170211
KRBD 281514Z 06009KT 1 3/4SM -RA BR SCT005 BKN010 OVC015 22/21 A2994 RMK AO2 CIG 007V012 P0000 T02170211
KRBD 281453Z 06008KT 2SM -RA BR BKN007 OVC013 21/21 A2994 RMK AO2 RAE00B36 CIG 004V011 SLP132 P0001 60002 T02110211 51026
KRBD 281444Z 05007KT 2SM -RA BR OVC007 21/21 A2995 RMK AO2 RAE00B36 CIG 004V011 P0000 T02110206
KRBD 281431Z 06008KT 1 3/4SM BR BKN006 OVC011 21/21 A2994 RMK AO2 RAE00 CIG 003V009 P0000 T02110206
KRBD 281416Z 05008KT 2SM BR OVC006 21/21 A2993 RMK AO2 RAE00 CIG 003V009 P0000 T02110206
KRBD 281400Z 05009KT 1 3/4SM BR BKN004 OVC010 21/21 A2993 RMK AO2 RAE00 CIG 003V007 P0000 T02110206
KRBD 281353Z 05007KT 2SM -RA BR OVC004 21/21 A2993 RMK AO2 CIG 003V009 SLP127 P0001 T02060206
KRBD 281346Z 05008KT 1 3/4SM -RA BR OVC004 21/21 A2993 RMK AO2 CIG 003V009 P0001 T02060206
KRBD 281335Z 07008KT 1 3/4SM -RA BR BKN005 OVC008 21/21 A2992 RMK AO2 P0000 T02060206
KRBD 281325Z 05009KT 2SM -RA BR BKN005 OVC013 21/20 A2992 RMK AO2 CIG 003V007 P0000 T02060200
KRBD 281313Z 04009KT 2 1/2SM -RA BR SCT006 OVC013 21/20 A2992 RMK AO2 P0000 T02060200
KRBD 281253Z 05010KT 2 1/2SM -RA BR OVC014 21/20 A2990 RMK AO2 RAB32 SLP118 P0000 T02110200
KRBD 281211Z 04008KT 10SM BKN014 OVC022 22/21 A2988 RMK AO2 T02220206
KRBD 281153Z 08007KT 10SM SCT018 OVC024 22/21 A2987 RMK AO2 SLP104 60000 T02220206 10272 20222 52022
KRBD 281142Z AUTO 12007KT 10SM BKN024 OVC075 22/21 A2985 RMK AO2 T02220206
KRBD 281119Z AUTO 12006KT 10SM FEW021 SCT029 SCT075 22/21 A2984 RMK AO2 T02220206
KRBD 281053Z AUTO 09011KT 10SM BKN020 OVC027 23/21 A2984 RMK AO2 PK WND 05031/1019 LTG DSNT E RAB18E48 SLP096 P0000 T02280206
KRBD 281040Z AUTO 10014G20KT 10SM -RA OVC022 23/21 A2984 RMK AO2 PK WND 05031/1019 LTG DSNT NE AND E RAB18 P0000 T02330206
KRBD 281002Z AUTO 15005KT 10SM VCTS OVC024 26/23 A2982 RMK AO2 LTG DSNT NW-NE T02610228
KRBD 280953Z AUTO 15006KT 10SM OVC023 26/23 A2983 RMK AO2 LTG DSNT N AND NE SLP090 T02610228
KRBD 280900Z AUTO 02009G20KT 10SM BKN019 27/22 A2981 RMK AO2 LTG DSNT N AND NW T02670222
KRBD 280853Z AUTO 01015G20KT 10SM SCT019 26/22 A2980 RMK AO2 LTG DSNT N PRESRR SLP082 T02610222 53019
KRBD 280753Z AUTO 18008KT 140V200 10SM CLR 27/22 A2972 RMK AO2 PRESFR SLP054 T02670222
KRBD 280653Z AUTO VRB05KT 10SM CLR 27/23 A2976 RMK AO2 SLP069 T02720228
KRBD 280553Z AUTO 17008G17KT 10SM CLR 27/23 A2974 RMK AO2 SLP063 T02720228 10311 20272 403170256 50001
KRBD 280453Z AUTO 16009G20KT 10SM CLR 28/23 A2977 RMK AO2 SLP072 T02830233
KRBD 280353Z AUTO 17009G20KT 8SM CLR 29/24 A2975 RMK AO2 SLP066 T02890239
KRBD 280253Z AUTO 17009G16KT 6SM HZ CLR 29/24 A2974 RMK AO2 SLP062 T02940244 56008
KRBD 280153Z AUTO 18007KT 160V220 7SM CLR 30/24 A2975 RMK AO2 SLP063 T03000239
KRBD 280053Z 18006KT 5SM HZ BKN046 31/24 A2976 RMK AO2 SLP066 T03060239
KRBD 272353Z 18008G16KT 4SM HZ FEW044 31/24 A2976 RMK AO2 SLP070 T03110244 10317 20289 58011


Page loaded:  11:32 UTC  |   04:32 AM Pacific  |   05:32 AM Mountain  |   06:32 AM Central  |   07:32 AM Eastern

 

ADVISORIES

FORECASTS

FORECASTS

OBSERVATIONS

USER TOOLS

ABOUT US